HHN weather

Frankfurt-Hahn Airport
Frankfurt am Main, Rhineland-Palatinate, Germany

Public forecast

Using degrees Celsius for public forecast. Weather courtesy of forecast.io.

Current aviation weather report (METAR) for Frankfurt-Hahn Airport

Retrieved 2019/10/17 05:20 UTC (0 seconds ago):

EDFH 170520Z 22013KT 9999 SCT013 12/10 Q1011

Aviation forecast (TAF) for Frankfurt-Hahn Airport

Retrieved 2019-10-17 23:18 UTC (0 seconds ago):

TAF TAF EDFH 162309Z 1623/1718 CNL